createdAt,value
2022-10-23T00:00:41.271Z,20.1
2022-10-23T00:01:45.366Z,19.8
2022-10-23T00:02:49.584Z,21
2022-10-23T00:03:54.046Z,21
2022-10-23T00:05:06.325Z,23.1
2022-10-23T00:06:10.453Z,22.3
2022-10-23T00:07:19.128Z,20.7
2022-10-23T00:08:24.642Z,20.8
2022-10-23T00:09:29.298Z,21.1
2022-10-23T00:10:33.732Z,22.1
2022-10-23T00:11:37.857Z,21.1
2022-10-23T00:12:42.265Z,19.9
2022-10-23T00:13:46.629Z,20.5
2022-10-23T00:14:50.761Z,21.7
2022-10-23T00:15:54.850Z,21.2
2022-10-23T00:16:58.913Z,20
2022-10-23T00:18:03.505Z,20.7
2022-10-23T00:19:07.725Z,20.5
2022-10-23T00:20:12.185Z,19.5
2022-10-23T00:21:16.321Z,17.7
2022-10-23T00:22:20.388Z,20.3
2022-10-23T00:23:24.860Z,19.9
2022-10-23T00:24:28.992Z,22.1
2022-10-23T00:25:33.023Z,21.3
2022-10-23T00:26:37.128Z,20.3
2022-10-23T00:27:41.494Z,19.6
2022-10-23T00:28:45.345Z,20.2
2022-10-23T00:29:49.672Z,21.9
2022-10-23T00:30:54.081Z,21.2
2022-10-23T00:31:58.178Z,19.6
2022-10-23T00:33:02.341Z,18
2022-10-23T00:34:06.484Z,19.3
2022-10-23T00:35:10.581Z,20.2
2022-10-23T00:36:14.749Z,19.4
2022-10-23T00:37:18.865Z,20.4
2022-10-23T00:38:23.073Z,19.3
2022-10-23T00:39:27.269Z,19.4
2022-10-23T00:40:31.871Z,19
2022-10-23T00:41:36.048Z,19.9
2022-10-23T00:42:40.165Z,18.6
2022-10-23T00:43:44.078Z,18.7
2022-10-23T00:44:59.029Z,18.7
2022-10-23T00:46:08.664Z,18.7
2022-10-23T00:47:12.908Z,16.5
2022-10-23T00:48:17.424Z,17.9
2022-10-23T00:49:21.494Z,17.7
2022-10-23T00:50:25.914Z,18.5
2022-10-23T00:51:29.952Z,17.8
2022-10-23T00:52:34.048Z,16.8
2022-10-23T00:53:38.200Z,16.1
2022-10-23T00:54:42.253Z,16.5
2022-10-23T00:55:46.364Z,16.4
2022-10-23T00:56:50.731Z,14.6
2022-10-23T00:57:55.184Z,16
2022-10-23T00:59:00.021Z,14.3
2022-10-23T01:00:04.588Z,14.7
2022-10-23T01:01:09.257Z,15.4
2022-10-23T01:02:16.332Z,16
2022-10-23T01:03:20.412Z,17.6
2022-10-23T01:04:24.608Z,18.1
2022-10-23T01:05:28.653Z,15.3
2022-10-23T01:06:32.725Z,16.6
2022-10-23T01:07:36.844Z,15.3
2022-10-23T01:08:46.100Z,15.7
2022-10-23T01:09:53.289Z,17
2022-10-23T01:11:00.486Z,17.1
2022-10-23T01:12:10.133Z,16.5
2022-10-23T01:13:19.401Z,17.8
2022-10-23T01:14:31.854Z,17.4
2022-10-23T01:15:46.656Z,16.7
2022-10-23T01:16:53.960Z,15.3
2022-10-23T01:18:01.052Z,15
2022-10-23T01:19:13.460Z,16.8
2022-10-23T01:20:23.084Z,15.3
2022-10-23T01:21:32.580Z,15.2
2022-10-23T01:22:47.352Z,16
2022-10-23T01:23:59.698Z,15.5
2022-10-23T01:25:09.021Z,15
2022-10-23T01:26:18.720Z,16.1
2022-10-23T01:27:22.955Z,16.1
2022-10-23T01:28:27.150Z,15.4
2022-10-23T01:29:31.833Z,16.1
2022-10-23T01:30:36.377Z,16.2
2022-10-23T01:31:40.425Z,16.3
2022-10-23T01:32:47.578Z,16.4
2022-10-23T01:33:54.752Z,16.5
2022-10-23T01:34:58.892Z,16.7
2022-10-23T01:36:08.564Z,15.4
2022-10-23T01:37:12.629Z,15.7
2022-10-23T01:38:17.103Z,16.4
2022-10-23T01:39:21.168Z,14.2
2022-10-23T01:40:25.229Z,17.1
2022-10-23T01:41:35.444Z,15.9
2022-10-23T01:42:39.746Z,16.8
2022-10-23T01:43:43.757Z,14.3
2022-10-23T01:44:53.843Z,15.1
2022-10-23T01:45:58.004Z,16.4
2022-10-23T01:47:02.052Z,15.3
2022-10-23T01:48:06.160Z,14.3
2022-10-23T01:49:10.400Z,15
2022-10-23T01:50:14.886Z,14
2022-10-23T01:51:18.897Z,15.1
2022-10-23T01:52:23.115Z,16.2
2022-10-23T01:53:27.444Z,14.3
2022-10-23T01:54:31.568Z,16.3
2022-10-23T01:55:35.695Z,16.2
2022-10-23T01:56:39.696Z,15.3
2022-10-23T01:57:43.976Z,15.1
2022-10-23T01:58:47.992Z,16
2022-10-23T01:59:52.629Z,15.2
2022-10-23T02:01:02.259Z,16.4
2022-10-23T02:02:06.565Z,15.4
2022-10-23T02:03:10.576Z,14.5
2022-10-23T02:04:14.773Z,14.9
2022-10-23T02:05:19.325Z,14
2022-10-23T02:06:23.729Z,15.1
2022-10-23T02:07:28.199Z,15.3
2022-10-23T02:08:32.228Z,15.6
2022-10-23T02:09:36.364Z,15.5
2022-10-23T02:10:40.503Z,15
2022-10-23T02:11:50.311Z,13.7
2022-10-23T02:12:54.806Z,15.7
2022-10-23T02:14:01.437Z,14.6
2022-10-23T02:15:08.640Z,14
2022-10-23T02:16:18.423Z,14.9
2022-10-23T02:17:32.849Z,15.9
2022-10-23T02:18:36.959Z,14.5
2022-10-23T02:19:44.208Z,17.6
2022-10-23T02:20:51.267Z,14.8
2022-10-23T02:21:55.376Z,15.7
2022-10-23T02:23:07.867Z,14.4
2022-10-23T02:24:17.388Z,16.6
2022-10-23T02:25:21.524Z,14.8
2022-10-23T02:26:28.352Z,14.6
2022-10-23T02:27:40.664Z,15.2
2022-10-23T02:28:44.789Z,16.3
2022-10-23T02:29:48.845Z,14.8
2022-10-23T02:30:53.036Z,15.7
2022-10-23T02:31:57.082Z,14.5
2022-10-23T02:33:01.268Z,15.5
2022-10-23T02:34:05.456Z,14.6
2022-10-23T02:35:09.965Z,15.8
2022-10-23T02:36:14.043Z,15.9
2022-10-23T02:37:18.614Z,14.9
2022-10-23T02:38:22.640Z,15.2
2022-10-23T02:39:32.648Z,16
2022-10-23T02:40:36.676Z,16.4
2022-10-23T02:41:40.872Z,16.3
2022-10-23T02:42:53.104Z,16.9
2022-10-23T02:44:02.844Z,14.5
2022-10-23T02:45:09.956Z,15.8
2022-10-23T02:46:19.260Z,13.2
2022-10-23T02:47:23.340Z,13.9
2022-10-23T02:48:32.924Z,14.3
2022-10-23T02:49:40.009Z,15.1
2022-10-23T02:50:54.771Z,14.8
2022-10-23T02:52:07.114Z,15.6
2022-10-23T02:53:19.333Z,14.7
2022-10-23T02:54:28.905Z,17.1
2022-10-23T02:55:43.597Z,14.6
2022-10-23T02:56:58.498Z,14.8
2022-10-23T02:58:05.606Z,15.3
2022-10-23T02:59:15.330Z,14.8
2022-10-23T03:00:24.538Z,16.2
2022-10-23T03:01:29.031Z,16.9
2022-10-23T03:02:38.102Z,14.6
2022-10-23T03:03:47.314Z,14
2022-10-23T03:04:54.513Z,13.8
2022-10-23T03:05:58.649Z,15.3
2022-10-23T03:07:02.703Z,14.8
2022-10-23T03:08:06.798Z,15.3
2022-10-23T03:09:10.953Z,17.6
2022-10-23T03:10:15.034Z,15.5
2022-10-23T03:11:19.133Z,14.9
2022-10-23T03:12:23.246Z,15.5
2022-10-23T03:13:27.666Z,17.1
2022-10-23T03:14:32.223Z,15.6
2022-10-23T03:15:36.322Z,15.4
2022-10-23T03:16:40.349Z,15.7
2022-10-23T03:17:44.421Z,14.5
2022-10-23T03:18:48.649Z,15.2
2022-10-23T03:19:52.686Z,14.9
2022-10-23T03:20:56.745Z,14.9
2022-10-23T03:22:00.971Z,15.8
2022-10-23T03:23:05.508Z,14.8
2022-10-23T03:24:09.578Z,15.6
2022-10-23T03:25:13.647Z,15.8
2022-10-23T03:26:17.822Z,17.2
2022-10-23T03:27:21.876Z,15.6
2022-10-23T03:28:26.226Z,15
2022-10-23T03:29:30.349Z,15.3
2022-10-23T03:30:34.418Z,16
2022-10-23T03:31:38.613Z,16.9
2022-10-23T03:32:43.453Z,16.3
2022-10-23T03:33:47.237Z,17.9
2022-10-23T03:34:51.477Z,15.1
2022-10-23T03:35:56.002Z,15.5
2022-10-23T03:37:00.109Z,17.1
2022-10-23T03:38:04.230Z,16
2022-10-23T03:39:08.373Z,16.8
2022-10-23T03:40:12.829Z,17.2
2022-10-23T03:41:16.934Z,16.9
2022-10-23T03:42:21.098Z,16.9
2022-10-23T03:43:25.245Z,16.1
2022-10-23T03:44:29.661Z,16.5
2022-10-23T03:45:34.145Z,16.5
2022-10-23T03:46:38.279Z,16.9
2022-10-23T03:47:42.669Z,17
2022-10-23T03:48:46.926Z,15.2
2022-10-23T03:49:51.110Z,16.8
2022-10-23T03:50:55.147Z,16.7
2022-10-23T03:51:59.274Z,16.7
2022-10-23T03:53:03.458Z,16.1
2022-10-23T03:54:07.482Z,16.3
2022-10-23T03:55:11.535Z,17
2022-10-23T03:56:15.762Z,16.3
2022-10-23T03:57:19.954Z,16.5
2022-10-23T03:58:24.409Z,18.7
2022-10-23T03:59:28.887Z,18.9
2022-10-23T04:00:33.540Z,17.8
2022-10-23T04:01:37.673Z,17.4
2022-10-23T04:02:42.056Z,18.2
2022-10-23T04:03:46.291Z,17.3
2022-10-23T04:04:50.999Z,17.9
2022-10-23T04:05:55.503Z,17.9
2022-10-23T04:06:59.609Z,17.5
2022-10-23T04:08:03.662Z,16.5
2022-10-23T04:09:07.835Z,16.7
2022-10-23T04:10:11.885Z,16.5
2022-10-23T04:11:16.054Z,17.2
2022-10-23T04:12:20.154Z,16.6
2022-10-23T04:13:24.238Z,16.5
2022-10-23T04:14:28.590Z,16.5
2022-10-23T04:15:32.773Z,17.7
2022-10-23T04:16:36.789Z,18.4
2022-10-23T04:17:40.898Z,16.2
2022-10-23T04:18:45.018Z,17
2022-10-23T04:19:49.179Z,17.7
2022-10-23T04:20:53.319Z,16.8
2022-10-23T04:21:57.345Z,17
2022-10-23T04:23:01.545Z,17.7
2022-10-23T04:24:05.966Z,17.1
2022-10-23T04:25:10.142Z,17.9
2022-10-23T04:26:14.293Z,16.8
2022-10-23T04:27:18.309Z,18.7
2022-10-23T04:28:22.409Z,17.7
2022-10-23T04:29:26.782Z,17.5
2022-10-23T04:30:30.882Z,16.8
2022-10-23T04:31:35.000Z,16.7
2022-10-23T04:32:39.081Z,18.8
2022-10-23T04:33:43.206Z,19.3
2022-10-23T04:34:47.281Z,17
2022-10-23T04:35:51.532Z,16.7
2022-10-23T04:36:56.169Z,17.4
2022-10-23T04:38:00.763Z,17.9
2022-10-23T04:39:05.225Z,17.4
2022-10-23T04:40:09.286Z,16.9
2022-10-23T04:41:13.434Z,19.6
2022-10-23T04:42:17.626Z,18
2022-10-23T04:43:21.670Z,16.3
2022-10-23T04:44:26.190Z,16.5
2022-10-23T04:45:30.578Z,16
2022-10-23T04:46:34.707Z,16.5
2022-10-23T04:47:39.254Z,16.7
2022-10-23T04:48:43.807Z,15.9
2022-10-23T04:49:47.903Z,17.4
2022-10-23T04:50:52.035Z,16.3
2022-10-23T04:51:56.075Z,16.9
2022-10-23T04:53:00.254Z,18.1
2022-10-23T04:54:04.397Z,17.2
2022-10-23T04:55:08.928Z,18.8
2022-10-23T04:56:13.011Z,17.6
2022-10-23T04:57:17.259Z,16.2
2022-10-23T04:58:21.668Z,16.3
2022-10-23T04:59:25.824Z,17.4
2022-10-23T05:00:30.200Z,17.7
2022-10-23T05:01:34.329Z,16.2
2022-10-23T05:02:38.343Z,15.6
2022-10-23T05:03:42.390Z,16.2
2022-10-23T05:04:46.515Z,16.2
2022-10-23T05:05:50.667Z,18.7
2022-10-23T05:06:54.725Z,18.3
2022-10-23T05:07:58.780Z,16.2
2022-10-23T05:09:02.955Z,17.2
2022-10-23T05:10:07.015Z,17.2
2022-10-23T05:11:11.232Z,15.9
2022-10-23T05:12:15.325Z,18.4
2022-10-23T05:13:19.440Z,17.1
2022-10-23T05:14:23.524Z,15.5
2022-10-23T05:15:27.776Z,16.6
2022-10-23T05:16:31.888Z,17
2022-10-23T05:17:41.550Z,16.4
2022-10-23T05:18:45.208Z,16.8
2022-10-23T05:19:49.307Z,16.4
2022-10-23T05:20:56.512Z,17.2
2022-10-23T05:22:06.125Z,17
2022-10-23T05:23:10.311Z,18.3
2022-10-23T05:24:14.340Z,17.5
2022-10-23T05:25:18.527Z,16.8
2022-10-23T05:26:22.654Z,16.5
2022-10-23T05:27:26.667Z,19
2022-10-23T05:28:31.071Z,21
2022-10-23T05:29:35.175Z,16.8
2022-10-23T05:30:39.203Z,17.8
2022-10-23T05:31:43.388Z,28.1
2022-10-23T05:32:47.539Z,29.3
2022-10-23T05:33:52.159Z,30.3
2022-10-23T05:34:56.740Z,23.6
2022-10-23T05:36:00.884Z,21.6
2022-10-23T05:37:05.403Z,28.9
2022-10-23T05:38:09.512Z,23.8
2022-10-23T05:39:13.475Z,24.4
2022-10-23T05:40:17.636Z,22.4
2022-10-23T05:41:21.708Z,16.4
2022-10-23T05:42:25.735Z,17
2022-10-23T05:43:30.224Z,16.8
2022-10-23T05:44:34.364Z,19.9
2022-10-23T05:45:39.049Z,16
2022-10-23T05:46:43.535Z,18.3
2022-10-23T05:47:47.740Z,19.8
2022-10-23T05:48:51.813Z,22.5
2022-10-23T05:49:55.899Z,21
2022-10-23T05:51:00.407Z,18.6
2022-10-23T05:52:07.556Z,19.1
2022-10-23T05:53:11.555Z,19.8
2022-10-23T05:54:15.767Z,17.6
2022-10-23T05:55:19.991Z,16.5
2022-10-23T05:56:24.004Z,13.8
2022-10-23T05:57:28.372Z,15.1
2022-10-23T05:58:32.548Z,15.3
2022-10-23T05:59:37.032Z,16
2022-10-23T06:00:41.168Z,15
2022-10-23T06:01:45.464Z,13.1
2022-10-23T06:02:49.363Z,13
2022-10-23T06:03:53.427Z,13.2
2022-10-23T06:04:57.611Z,13.8
2022-10-23T06:06:01.716Z,13.4
2022-10-23T06:07:06.204Z,13.4
2022-10-23T06:08:10.375Z,13.4
2022-10-23T06:09:14.916Z,12.6
2022-10-23T06:10:19.057Z,11.9
2022-10-23T06:11:23.175Z,12
2022-10-23T06:12:27.515Z,13.8
2022-10-23T06:13:31.652Z,13.2
2022-10-23T06:14:35.711Z,13.9
2022-10-23T06:15:39.823Z,11.7
2022-10-23T06:16:43.959Z,12.6
2022-10-23T06:17:48.513Z,12.7
2022-10-23T06:18:52.623Z,11.8
2022-10-23T06:19:56.839Z,12.6
2022-10-23T06:21:00.956Z,13.5
2022-10-23T06:22:05.047Z,12.3
2022-10-23T06:23:09.183Z,12.6
2022-10-23T06:24:13.277Z,11.8
2022-10-23T06:25:17.335Z,12.3
2022-10-23T06:26:21.495Z,12.2
2022-10-23T06:27:26.191Z,12.9
2022-10-23T06:28:30.380Z,12.6
2022-10-23T06:29:34.479Z,13.4
2022-10-23T06:31:43.183Z,13.1
2022-10-23T06:32:47.351Z,14.3
2022-10-23T06:33:51.419Z,14.2
2022-10-23T06:34:55.585Z,13.9
2022-10-23T06:35:59.671Z,13.3
2022-10-23T06:37:04.311Z,13.9
2022-10-23T06:38:08.471Z,15.2
2022-10-23T06:39:12.935Z,12.6
2022-10-23T06:40:17.168Z,13.7
2022-10-23T06:41:21.263Z,13.2
2022-10-23T06:42:25.887Z,11.9
2022-10-23T06:43:30.277Z,12.1
2022-10-23T06:44:34.739Z,12.3
2022-10-23T06:45:38.891Z,11.6
2022-10-23T06:46:42.951Z,11.5
2022-10-23T06:47:50.067Z,11.7
2022-10-23T06:48:54.255Z,11.9
2022-10-23T06:49:58.315Z,11.2
2022-10-23T06:51:02.440Z,11.7
2022-10-23T06:52:10.944Z,11
2022-10-23T06:53:11.172Z,10.6
2022-10-23T06:54:15.243Z,11
2022-10-23T06:55:19.419Z,11.4
2022-10-23T06:56:24.035Z,9.9
2022-10-23T06:57:28.083Z,10.1
2022-10-23T06:58:32.664Z,11.2
2022-10-23T06:59:37.086Z,10.6
2022-10-23T07:00:41.219Z,10.8
2022-10-23T07:01:45.540Z,10.7
2022-10-23T07:02:49.495Z,10.9
2022-10-23T07:03:53.568Z,10.9
2022-10-23T07:04:57.751Z,10.8
2022-10-23T07:06:02.295Z,10.9
2022-10-23T07:07:07.009Z,9.9
2022-10-23T07:08:11.564Z,10.1
2022-10-23T07:09:16.270Z,10.2
2022-10-23T07:10:20.867Z,10.8
2022-10-23T07:11:25.427Z,11.2
2022-10-23T07:12:29.795Z,10.7
2022-10-23T07:13:34.023Z,9.7
2022-10-23T07:14:38.495Z,9.7
2022-10-23T07:15:42.558Z,10.1
2022-10-23T07:16:46.640Z,10.5
2022-10-23T07:17:50.835Z,11.8
2022-10-23T07:18:54.910Z,11.2
2022-10-23T07:20:01.589Z,10.7
2022-10-23T07:21:06.179Z,10.3
2022-10-23T07:22:11.922Z,10.6
2022-10-23T07:23:14.335Z,10
2022-10-23T07:24:18.543Z,9.8
2022-10-23T07:25:22.735Z,10.5
2022-10-23T07:26:26.747Z,10.5
2022-10-23T07:27:31.027Z,11.7
2022-10-23T07:28:38.271Z,12.3
2022-10-23T07:29:42.402Z,11.1
2022-10-23T07:30:46.535Z,11.5
2022-10-23T07:31:56.255Z,10.4
2022-10-23T07:33:00.291Z,11.7
2022-10-23T07:34:04.388Z,10.8
2022-10-23T07:35:08.636Z,10.3
2022-10-23T07:36:12.671Z,10.3
2022-10-23T07:37:16.734Z,10.8
2022-10-23T07:38:20.919Z,11.6
2022-10-23T07:39:24.979Z,10.9
2022-10-23T07:40:29.099Z,11.3
2022-10-23T07:41:33.324Z,10.4
2022-10-23T07:42:37.470Z,10.8
2022-10-23T07:43:41.583Z,12.6
2022-10-23T07:44:45.712Z,10.7
2022-10-23T07:45:49.808Z,11.5
2022-10-23T07:46:53.875Z,11.9
2022-10-23T07:47:58.019Z,12
2022-10-23T07:49:02.120Z,12.3
2022-10-23T07:50:06.182Z,12.6
2022-10-23T07:51:10.331Z,10.5
2022-10-23T07:52:14.518Z,12.3
2022-10-23T07:53:18.952Z,13
2022-10-23T07:54:23.132Z,12.1
2022-10-23T07:55:27.198Z,13.4
2022-10-23T07:56:31.662Z,11
2022-10-23T07:57:35.903Z,11
2022-10-23T07:58:40.314Z,11.8
2022-10-23T07:59:44.503Z,12.6
2022-10-23T08:00:48.639Z,11.5
2022-10-23T08:02:00.918Z,12.4
2022-10-23T08:03:05.091Z,12
2022-10-23T08:04:09.091Z,10.6
2022-10-23T08:05:13.182Z,12
2022-10-23T08:06:17.363Z,10.9
2022-10-23T08:07:21.447Z,10.7
2022-10-23T08:08:25.539Z,9.9
2022-10-23T08:09:29.679Z,9.5
2022-10-23T08:10:34.031Z,10.2
2022-10-23T08:11:38.144Z,9.8
2022-10-23T08:12:42.570Z,10.7
2022-10-23T08:13:46.353Z,10.1
2022-10-23T08:14:50.574Z,9.7
2022-10-23T08:15:54.776Z,10.4
2022-10-23T08:16:59.308Z,10.3
2022-10-23T08:18:03.448Z,10.1
2022-10-23T08:19:07.974Z,10.5
2022-10-23T08:20:12.003Z,9.4
2022-10-23T08:21:16.122Z,12.2
2022-10-23T08:22:20.263Z,10.1
2022-10-23T08:23:24.451Z,10.3
2022-10-23T08:24:28.631Z,10.7
2022-10-23T08:26:37.043Z,8.8
2022-10-23T08:27:41.413Z,8.3
2022-10-23T08:28:45.247Z,8
2022-10-23T08:29:49.354Z,9.1
2022-10-23T08:30:53.510Z,9.1
2022-10-23T08:31:57.723Z,9.4
2022-10-23T08:33:01.722Z,9.1
2022-10-23T08:34:05.885Z,8.3
2022-10-23T08:35:10.055Z,9.5
2022-10-23T08:36:14.487Z,9.5
2022-10-23T08:37:21.275Z,8.8
2022-10-23T08:38:25.290Z,8.2
2022-10-23T08:39:29.598Z,8.6
2022-10-23T08:40:33.852Z,7.5
2022-10-23T08:41:38.104Z,8.4
2022-10-23T08:42:42.755Z,8.4
2022-10-23T08:43:46.930Z,7.7
2022-10-23T08:44:54.006Z,8.6
2022-10-23T08:46:08.510Z,7.4
2022-10-23T08:47:10.403Z,8.3
2022-10-23T08:48:25.155Z,8.1
2022-10-23T08:49:32.002Z,7.9
2022-10-23T08:50:44.402Z,7.4
2022-10-23T08:51:48.954Z,8.4
2022-10-23T08:52:53.087Z,9.5
2022-10-23T08:54:02.783Z,8.4
2022-10-23T08:55:06.907Z,7.9
2022-10-23T08:56:16.219Z,8.3
2022-10-23T08:57:23.370Z,7.9
2022-10-23T08:58:27.363Z,8.8
2022-10-23T08:59:34.894Z,8.8
2022-10-23T09:00:39.028Z,8.4
2022-10-23T09:01:43.413Z,8.7
2022-10-23T09:02:47.778Z,10
2022-10-23T09:03:51.843Z,9.7
2022-10-23T09:04:56.078Z,8.6
2022-10-23T09:06:00.047Z,9
2022-10-23T09:08:21.844Z,10.1
2022-10-23T09:09:26.096Z,9.3
2022-10-23T09:10:33.109Z,8.9
2022-10-23T09:11:42.391Z,8.6
2022-10-23T09:12:49.635Z,8.4
2022-10-23T09:13:53.703Z,9.1
2022-10-23T09:15:00.834Z,9.1
2022-10-23T09:16:07.575Z,10.6
2022-10-23T09:17:16.732Z,8.8
2022-10-23T09:18:23.449Z,8.9
2022-10-23T09:19:27.514Z,9
2022-10-23T09:20:31.642Z,8.5
2022-10-23T09:21:36.019Z,8.3
2022-10-23T09:22:40.154Z,7.9
2022-10-23T09:23:44.334Z,8.2
2022-10-23T09:24:51.506Z,8
2022-10-23T09:25:52.447Z,8.1
2022-10-23T09:26:56.619Z,9.1
2022-10-23T09:28:01.399Z,10.4
2022-10-23T09:29:05.387Z,9.3
2022-10-23T09:30:09.487Z,7.7
2022-10-23T09:31:14.006Z,8.4
2022-10-23T09:32:18.190Z,8.3
2022-10-23T09:33:32.763Z,8.8
2022-10-23T09:34:36.818Z,8
2022-10-23T09:35:41.171Z,9.7
2022-10-23T09:37:59.903Z,8.5
2022-10-23T09:39:04.118Z,8.2
2022-10-23T09:40:08.082Z,8.3
2022-10-23T09:41:17.323Z,8.1
2022-10-23T09:42:26.527Z,8.7
2022-10-23T09:43:30.653Z,8.8
2022-10-23T09:44:34.994Z,9.2
2022-10-23T09:45:39.042Z,9
2022-10-23T09:46:43.239Z,8.8
2022-10-23T09:47:47.455Z,9.8
2022-10-23T09:48:51.947Z,8.8
2022-10-23T09:49:59.182Z,10.1
2022-10-23T09:51:03.298Z,9
2022-10-23T09:52:16.038Z,9.7
2022-10-23T09:53:23.174Z,9.1
2022-10-23T09:54:27.262Z,8.7
2022-10-23T09:55:31.430Z,8.3
2022-10-23T09:56:35.932Z,8.8
2022-10-23T09:57:40.240Z,8
2022-10-23T09:58:44.034Z,7.9
2022-10-23T09:59:53.310Z,8.4
2022-10-23T10:00:57.503Z,8
2022-10-23T10:02:01.726Z,8.9
2022-10-23T10:03:06.082Z,9.4
2022-10-23T10:04:10.246Z,9
2022-10-23T10:05:14.331Z,8.8
2022-10-23T10:06:28.836Z,8.3
2022-10-23T10:07:34.697Z,9.4
2022-10-23T10:08:37.142Z,9.3
2022-10-23T10:09:41.535Z,7.9
2022-10-23T10:10:45.961Z,8.3
2022-10-23T10:11:55.222Z,9.3
2022-10-23T10:13:09.209Z,8.6
2022-10-23T10:14:19.788Z,8.3
2022-10-23T10:15:32.290Z,8.6
2022-10-23T10:16:44.826Z,8.4
2022-10-23T10:17:59.414Z,8.6
2022-10-23T10:19:13.868Z,8.2
2022-10-23T10:20:21.175Z,8.4
2022-10-23T10:21:33.306Z,8.4
2022-10-23T10:22:45.754Z,7.4
2022-10-23T10:24:00.402Z,7.3
2022-10-23T10:25:12.890Z,7.7
2022-10-23T10:26:27.532Z,8.5
2022-10-23T10:27:42.691Z,7.1
2022-10-23T10:28:57.298Z,8.4
2022-10-23T10:30:12.006Z,8
2022-10-23T10:31:16.138Z,8.5
2022-10-23T10:32:25.402Z,8
2022-10-23T10:33:39.935Z,7.8
2022-10-23T10:34:49.623Z,7.7
2022-10-23T10:35:58.964Z,7.4
2022-10-23T10:37:02.970Z,7.3
2022-10-23T10:38:15.434Z,7.4
2022-10-23T10:39:22.402Z,7.6
2022-10-23T10:40:37.009Z,7.8
2022-10-23T10:41:49.394Z,7.2
2022-10-23T10:42:53.426Z,7.7
2022-10-23T10:44:07.846Z,7.6
2022-10-23T10:45:17.595Z,7.6
2022-10-23T10:46:30.298Z,7.1
2022-10-23T10:47:43.059Z,7.1
2022-10-23T10:48:52.099Z,8
2022-10-23T10:50:01.983Z,7.4
2022-10-23T10:51:16.714Z,7
2022-10-23T10:52:31.403Z,6.9
2022-10-23T10:53:38.499Z,6.9
2022-10-23T10:54:53.338Z,6.7
2022-10-23T10:56:03.028Z,7.1
2022-10-23T10:57:07.117Z,6.8
2022-10-23T10:58:14.303Z,6.9
2022-10-23T10:59:23.997Z,7.1
2022-10-23T11:00:31.229Z,6.9
2022-10-23T11:01:35.573Z,7
2022-10-23T11:02:47.814Z,6.1
2022-10-23T11:03:51.917Z,6.4
2022-10-23T11:05:04.383Z,6.3
2022-10-23T11:06:19.134Z,6.7
2022-10-23T11:07:23.274Z,6.7
2022-10-23T11:08:27.691Z,6.7
2022-10-23T11:09:37.306Z,7.3
2022-10-23T11:10:41.482Z,6.6
2022-10-23T11:11:45.658Z,6.8
2022-10-23T11:12:50.134Z,6.2
2022-10-23T11:13:54.230Z,6.4
2022-10-23T11:14:58.382Z,5.7
2022-10-23T11:16:02.434Z,6.1
2022-10-23T11:17:11.645Z,6
2022-10-23T11:18:25.970Z,5.8
2022-10-23T11:19:30.125Z,5.5
2022-10-23T11:20:37.539Z,5.9
2022-10-23T11:21:49.906Z,4.8
2022-10-23T11:22:59.618Z,5.7
2022-10-23T11:25:18.654Z,5.8
2022-10-23T11:26:33.393Z,5.5
2022-10-23T11:27:44.228Z,5.9
2022-10-23T11:28:53.738Z,6.4
2022-10-23T11:30:03.355Z,5.9
2022-10-23T11:31:17.766Z,6.2
2022-10-23T11:33:42.694Z,5.5
2022-10-23T11:34:51.764Z,6.4
2022-10-23T11:36:03.972Z,6.2
2022-10-23T11:37:16.458Z,6.4
2022-10-23T11:38:20.422Z,6.3
2022-10-23T11:39:27.193Z,6.4
2022-10-23T11:40:31.955Z,5.8
2022-10-23T11:41:36.043Z,6.2
2022-10-23T11:42:40.290Z,6
2022-10-23T11:43:44.239Z,5.8
2022-10-23T11:44:56.054Z,6
2022-10-23T11:46:00.091Z,5.5
2022-10-23T11:47:14.562Z,5.1
2022-10-23T11:48:29.355Z,4.9
2022-10-23T11:49:36.766Z,4.9
2022-10-23T11:50:40.917Z,4.9
2022-10-23T11:51:44.996Z,4.9
2022-10-23T11:52:50.559Z,5.4
2022-10-23T11:53:53.203Z,5
2022-10-23T11:55:05.590Z,4.9
2022-10-23T11:56:17.905Z,5.1
2022-10-23T11:57:25.038Z,5.3
2022-10-23T11:58:29.114Z,4.9
2022-10-23T11:59:43.686Z,5.2
2022-10-23T12:00:47.822Z,4.9
2022-10-23T12:02:00.191Z,4.9
2022-10-23T12:03:04.300Z,5
2022-10-23T12:04:08.359Z,5.1
2022-10-23T12:05:15.725Z,5.7
2022-10-23T12:06:28.282Z,4.7
2022-10-23T12:07:32.587Z,5.3
2022-10-23T12:08:36.734Z,5.1
2022-10-23T12:09:40.903Z,4.8
2022-10-23T12:10:45.228Z,4.8
2022-10-23T12:11:49.690Z,4.8
2022-10-23T12:13:02.366Z,4.8
2022-10-23T12:14:06.600Z,4.6
2022-10-23T12:15:21.394Z,4.4
2022-10-23T12:16:25.490Z,4.6
2022-10-23T12:17:34.741Z,4.6
2022-10-23T12:18:39.058Z,5.2
2022-10-23T12:19:48.353Z,5.3
2022-10-23T12:20:52.413Z,4.8
2022-10-23T12:22:01.653Z,4.8
2022-10-23T12:23:05.793Z,5
2022-10-23T12:24:16.107Z,6.1
2022-10-23T12:25:25.358Z,5.9
2022-10-23T12:26:35.562Z,5.5
2022-10-23T12:27:43.309Z,5.2
2022-10-23T12:28:55.310Z,5.1
2022-10-23T12:29:59.978Z,5.4
2022-10-23T12:31:14.665Z,4.9
2022-10-23T12:32:26.929Z,5.5
2022-10-23T12:33:36.225Z,5.4
2022-10-23T12:34:43.214Z,4.8
2022-10-23T12:35:52.906Z,5.1
2022-10-23T12:37:02.166Z,4.8
2022-10-23T12:38:16.983Z,4.7
2022-10-23T12:39:26.241Z,4.9
2022-10-23T12:40:30.641Z,4.5
2022-10-23T12:41:34.961Z,4.4
2022-10-23T12:42:39.181Z,5.4
2022-10-23T12:43:43.231Z,5.2
2022-10-23T12:44:55.607Z,4.5
2022-10-23T12:46:02.698Z,5
2022-10-23T12:47:14.942Z,5
2022-10-23T12:48:19.098Z,4.9
2022-10-23T12:49:23.215Z,4.6
2022-10-23T12:50:27.361Z,5
2022-10-23T12:51:31.898Z,4.3
2022-10-23T12:52:35.978Z,5.4
2022-10-23T12:53:40.539Z,4.8
2022-10-23T12:54:44.586Z,4.1
2022-10-23T12:55:48.759Z,4.9
2022-10-23T12:56:58.402Z,4.8
2022-10-23T12:58:02.597Z,4.8
2022-10-23T12:59:06.658Z,4.6
2022-10-23T13:00:10.717Z,4.4
2022-10-23T13:01:15.454Z,4.5
2022-10-23T13:02:25.404Z,3.9
2022-10-23T13:03:29.700Z,4.6
2022-10-23T13:04:33.793Z,4.7
2022-10-23T13:05:38.143Z,4.4
2022-10-23T13:06:42.337Z,3.8
2022-10-23T13:07:46.706Z,4.3
2022-10-23T13:08:51.066Z,4.3
2022-10-23T13:09:55.189Z,4.1
2022-10-23T13:10:59.268Z,3.9
2022-10-23T13:12:03.370Z,4.9
2022-10-23T13:13:08.117Z,4.2
2022-10-23T13:14:12.181Z,4.3
2022-10-23T13:15:16.274Z,4.7
2022-10-23T13:16:20.861Z,5.2
2022-10-23T13:17:25.043Z,4.4
2022-10-23T13:18:34.289Z,4.5
2022-10-23T13:19:38.537Z,4.7
2022-10-23T13:20:42.669Z,4.4
2022-10-23T13:21:51.934Z,4.4
2022-10-23T13:22:57.655Z,3.8
2022-10-23T13:24:00.318Z,4.9
2022-10-23T13:25:04.962Z,4.9
2022-10-23T13:26:19.629Z,4.1
2022-10-23T13:27:28.897Z,4.6
2022-10-23T13:28:33.009Z,4.6
2022-10-23T13:29:42.942Z,4.3
2022-10-23T13:30:47.002Z,3.8
2022-10-23T13:32:01.869Z,4.2
2022-10-23T13:33:11.134Z,3.6
2022-10-23T13:34:23.441Z,4.3
2022-10-23T13:35:30.579Z,4
2022-10-23T13:36:34.605Z,4.2
2022-10-23T13:37:39.097Z,4.4
2022-10-23T13:38:43.246Z,4.1
2022-10-23T13:39:47.788Z,4.3
2022-10-23T13:41:00.141Z,4
2022-10-23T13:42:06.871Z,4
2022-10-23T13:43:13.861Z,4
2022-10-23T13:44:18.129Z,4.3
2022-10-23T13:45:22.202Z,4.1
2022-10-23T13:46:26.326Z,4.2
2022-10-23T13:47:30.822Z,4.5
2022-10-23T13:48:35.061Z,4.9
2022-10-23T13:49:39.366Z,4.2
2022-10-23T13:50:43.501Z,4.1
2022-10-23T13:51:47.601Z,3.9
2022-10-23T13:52:51.717Z,4.2
2022-10-23T13:53:55.898Z,3.8
2022-10-23T13:55:00.090Z,4
2022-10-23T13:56:04.663Z,4.1
2022-10-23T13:57:08.750Z,4.5
2022-10-23T13:58:13.325Z,3.9
2022-10-23T13:59:17.525Z,3.9
2022-10-23T14:00:21.597Z,3.9
2022-10-23T14:01:25.881Z,4
2022-10-23T14:02:30.096Z,4.8
2022-10-23T14:03:33.989Z,4
2022-10-23T14:04:38.026Z,4.4
2022-10-23T14:05:42.343Z,4.4
2022-10-23T14:06:46.509Z,4.4
2022-10-23T14:07:50.649Z,4.5
2022-10-23T14:08:54.711Z,4.5
2022-10-23T14:09:58.783Z,5
2022-10-23T14:11:03.076Z,4.3
2022-10-23T14:12:07.149Z,4.8
2022-10-23T14:13:11.230Z,4.6
2022-10-23T14:14:15.349Z,4.5
2022-10-23T14:15:19.401Z,4.7
2022-10-23T14:16:23.517Z,4.6
2022-10-23T14:17:27.758Z,4.2
2022-10-23T14:18:31.827Z,4.7
2022-10-23T14:20:40.189Z,4.7
2022-10-23T14:21:44.312Z,4.7
2022-10-23T14:22:49.002Z,5
2022-10-23T14:23:53.067Z,5.3
2022-10-23T14:24:57.177Z,5
2022-10-23T14:26:01.334Z,4.8
2022-10-23T14:27:05.466Z,7.1
2022-10-23T14:28:09.602Z,6.7
2022-10-23T14:29:19.977Z,6.6
2022-10-23T14:30:17.886Z,7.7
2022-10-23T14:31:22.353Z,7.6
2022-10-23T14:32:26.505Z,9
2022-10-23T14:33:30.624Z,9.5
2022-10-23T14:34:34.653Z,8.9
2022-10-23T14:35:38.733Z,8.9
2022-10-23T14:36:49.655Z,8.5
2022-10-23T14:37:47.955Z,9.7
2022-10-23T14:38:55.600Z,10.5
2022-10-23T14:39:56.597Z,11
2022-10-23T14:41:00.781Z,11.9
2022-10-23T14:42:04.861Z,12.8
2022-10-23T14:43:08.913Z,12.6
2022-10-23T14:44:13.039Z,12.5
2022-10-23T14:45:17.525Z,11.7
2022-10-23T14:46:21.720Z,12.7
2022-10-23T14:47:25.917Z,13.2
2022-10-23T14:48:30.229Z,13.2
2022-10-23T14:49:34.721Z,14.1
2022-10-23T14:50:38.881Z,13.3
2022-10-23T14:51:43.298Z,12.8
2022-10-23T14:52:47.355Z,12.4
2022-10-23T14:53:52.211Z,10
2022-10-23T14:54:58.621Z,9.9
2022-10-23T14:56:02.662Z,8.8
2022-10-23T14:57:06.814Z,8.5
2022-10-23T14:58:11.006Z,9.4
2022-10-23T14:59:15.181Z,9.5
2022-10-23T15:00:19.294Z,8
2022-10-23T15:01:23.625Z,8.4